sensor_id;sensor_type;location;lat;lon;timestamp;pressure;altitude;pressure_sealevel;temperature;humidity
57050;BME280;42935;50.966;16.992;2023-02-03T00:00:14;102313.33;;;-2.31;100.00
57050;BME280;42935;50.966;16.992;2023-02-03T00:03:21;102317.98;;;-2.28;100.00
57050;BME280;42935;50.966;16.992;2023-02-03T00:06:27;102310.51;;;-2.26;100.00
57050;BME280;42935;50.966;16.992;2023-02-03T00:09:41;102317.40;;;-2.24;100.00
57050;BME280;42935;50.966;16.992;2023-02-03T00:12:49;102318.97;;;-2.44;100.00
57050;BME280;42935;50.966;16.992;2023-02-03T00:16:07;102317.46;;;-2.25;100.00
57050;BME280;42935;50.966;16.992;2023-02-03T00:19:16;102316.12;;;-2.23;100.00
57050;BME280;42935;50.966;16.992;2023-02-03T00:22:34;102314.82;;;-2.37;100.00
57050;BME280;42935;50.966;16.992;2023-02-03T00:25:50;102308.43;;;-2.26;100.00
57050;BME280;42935;50.966;16.992;2023-02-03T00:28:58;102302.52;;;-2.32;100.00
57050;BME280;42935;50.966;16.992;2023-02-03T00:32:05;102303.16;;;-2.32;100.00
57050;BME280;42935;50.966;16.992;2023-02-03T00:35:14;102311.13;;;-2.51;100.00
57050;BME280;42935;50.966;16.992;2023-02-03T00:38:26;102312.18;;;-2.53;100.00
57050;BME280;42935;50.966;16.992;2023-02-03T00:41:37;102295.23;;;-2.41;100.00
57050;BME280;42935;50.966;16.992;2023-02-03T00:44:41;102305.09;;;-2.30;100.00
57050;BME280;42935;50.966;16.992;2023-02-03T00:47:52;102278.12;;;-2.47;100.00
57050;BME280;42935;50.966;16.992;2023-02-03T00:51:05;102295.34;;;-2.38;100.00
57050;BME280;42935;50.966;16.992;2023-02-03T00:54:16;102284.32;;;-2.35;100.00
57050;BME280;42935;50.966;16.992;2023-02-03T00:57:25;102282.77;;;-2.38;100.00
57050;BME280;42935;50.966;16.992;2023-02-03T01:00:34;102291.57;;;-2.30;100.00
57050;BME280;42935;50.966;16.992;2023-02-03T01:03:40;102284.88;;;-2.23;100.00
57050;BME280;42935;50.966;16.992;2023-02-03T01:06:53;102282.16;;;-2.11;100.00
57050;BME280;42935;50.966;16.992;2023-02-03T01:10:04;102263.72;;;-2.22;100.00
57050;BME280;42935;50.966;16.992;2023-02-03T01:13:11;102272.23;;;-2.21;100.00
57050;BME280;42935;50.966;16.992;2023-02-03T01:16:22;102256.58;;;-2.17;100.00
57050;BME280;42935;50.966;16.992;2023-02-03T01:19:28;102259.54;;;-1.98;100.00
57050;BME280;42935;50.966;16.992;2023-02-03T01:22:37;102256.73;;;-1.88;100.00
57050;BME280;42935;50.966;16.992;2023-02-03T01:25:44;102252.29;;;-1.99;100.00
57050;BME280;42935;50.966;16.992;2023-02-03T01:28:55;102248.05;;;-1.92;100.00
57050;BME280;42935;50.966;16.992;2023-02-03T01:32:04;102225.26;;;-1.99;100.00
57050;BME280;42935;50.966;16.992;2023-02-03T01:35:13;102225.28;;;-1.87;100.00
57050;BME280;42935;50.966;16.992;2023-02-03T01:38:23;102219.59;;;-1.82;100.00
57050;BME280;42935;50.966;16.992;2023-02-03T01:41:32;102176.34;;;-2.05;100.00
57050;BME280;42935;50.966;16.992;2023-02-03T01:44:48;102208.23;;;-1.90;100.00
57050;BME280;42935;50.966;16.992;2023-02-03T01:47:59;102198.91;;;-1.89;100.00
57050;BME280;42935;50.966;16.992;2023-02-03T01:51:08;102183.30;;;-2.00;100.00
57050;BME280;42935;50.966;16.992;2023-02-03T01:54:20;102175.00;;;-1.95;100.00
57050;BME280;42935;50.966;16.992;2023-02-03T01:57:39;102174.79;;;-1.90;100.00
57050;BME280;42935;50.966;16.992;2023-02-03T02:00:51;102165.30;;;-2.10;100.00
57050;BME280;42935;50.966;16.992;2023-02-03T02:04:02;102149.53;;;-2.13;100.00
57050;BME280;42935;50.966;16.992;2023-02-03T02:07:09;102137.89;;;-2.06;100.00
57050;BME280;42935;50.966;16.992;2023-02-03T02:10:17;102122.92;;;-2.07;100.00
57050;BME280;42935;50.966;16.992;2023-02-03T02:13:33;102123.66;;;-2.04;100.00
57050;BME280;42935;50.966;16.992;2023-02-03T02:23:35;102101.29;;;-2.11;100.00
57050;BME280;42935;50.966;16.992;2023-02-03T02:26:49;102113.73;;;-2.11;100.00
57050;BME280;42935;50.966;16.992;2023-02-03T02:36:59;102104.73;;;-1.96;100.00
57050;BME280;42935;50.966;16.992;2023-02-03T02:40:21;102103.12;;;-1.90;100.00
57050;BME280;42935;50.966;16.992;2023-02-03T02:46:53;102102.48;;;-1.78;100.00
57050;BME280;42935;50.966;16.992;2023-02-03T02:53:25;102081.23;;;-1.68;100.00
57050;BME280;42935;50.966;16.992;2023-02-03T02:56:37;102074.50;;;-1.54;100.00
57050;BME280;42935;50.966;16.992;2023-02-03T02:59:47;102044.82;;;-1.58;100.00
57050;BME280;42935;50.966;16.992;2023-02-03T03:02:55;102032.75;;;-1.63;100.00
57050;BME280;42935;50.966;16.992;2023-02-03T03:06:10;102020.73;;;-1.55;100.00
57050;BME280;42935;50.966;16.992;2023-02-03T03:09:30;102010.90;;;-1.55;100.00
57050;BME280;42935;50.966;16.992;2023-02-03T03:12:45;102012.19;;;-1.62;100.00
57050;BME280;42935;50.966;16.992;2023-02-03T03:15:56;102013.50;;;-1.55;100.00
57050;BME280;42935;50.966;16.992;2023-02-03T03:19:09;102003.74;;;-1.55;100.00
57050;BME280;42935;50.966;16.992;2023-02-03T03:22:29;101988.14;;;-1.67;100.00
57050;BME280;42935;50.966;16.992;2023-02-03T03:25:42;101983.55;;;-1.76;100.00
57050;BME280;42935;50.966;16.992;2023-02-03T03:28:50;101994.23;;;-1.71;100.00
57050;BME280;42935;50.966;16.992;2023-02-03T03:32:01;101984.97;;;-1.77;100.00
57050;BME280;42935;50.966;16.992;2023-02-03T03:35:18;101996.60;;;-1.66;100.00
57050;BME280;42935;50.966;16.992;2023-02-03T03:45:23;101966.23;;;-1.52;100.00
57050;BME280;42935;50.966;16.992;2023-02-03T03:48:38;101971.35;;;-1.61;100.00
57050;BME280;42935;50.966;16.992;2023-02-03T03:51:55;101979.56;;;-1.55;100.00
57050;BME280;42935;50.966;16.992;2023-02-03T03:55:08;101986.87;;;-1.56;100.00
57050;BME280;42935;50.966;16.992;2023-02-03T03:58:22;101961.09;;;-1.57;100.00
57050;BME280;42935;50.966;16.992;2023-02-03T04:01:30;101969.55;;;-1.47;100.00
57050;BME280;42935;50.966;16.992;2023-02-03T04:04:38;101967.51;;;-1.50;100.00
57050;BME280;42935;50.966;16.992;2023-02-03T04:07:46;101949.13;;;-1.63;100.00
57050;BME280;42935;50.966;16.992;2023-02-03T04:10:53;101947.34;;;-1.65;100.00
57050;BME280;42935;50.966;16.992;2023-02-03T04:14:03;101955.22;;;-1.69;100.00
57050;BME280;42935;50.966;16.992;2023-02-03T04:17:08;101952.75;;;-1.65;100.00
57050;BME280;42935;50.966;16.992;2023-02-03T04:20:25;101949.36;;;-1.55;100.00
57050;BME280;42935;50.966;16.992;2023-02-03T04:23:32;101928.30;;;-1.68;100.00
57050;BME280;42935;50.966;16.992;2023-02-03T04:26:38;101925.79;;;-1.54;100.00
57050;BME280;42935;50.966;16.992;2023-02-03T04:29:44;101921.84;;;-1.52;100.00
57050;BME280;42935;50.966;16.992;2023-02-03T04:32:52;101924.60;;;-1.46;100.00
57050;BME280;42935;50.966;16.992;2023-02-03T04:35:59;101921.98;;;-1.44;100.00
57050;BME280;42935;50.966;16.992;2023-02-03T04:39:08;101910.04;;;-1.46;100.00
57050;BME280;42935;50.966;16.992;2023-02-03T04:42:16;101900.08;;;-1.43;100.00
57050;BME280;42935;50.966;16.992;2023-02-03T04:45:23;101883.19;;;-1.49;100.00
57050;BME280;42935;50.966;16.992;2023-02-03T04:48:29;101888.96;;;-1.41;100.00
57050;BME280;42935;50.966;16.992;2023-02-03T04:51:36;101891.86;;;-1.40;100.00
57050;BME280;42935;50.966;16.992;2023-02-03T04:54:45;101885.84;;;-1.38;100.00
57050;BME280;42935;50.966;16.992;2023-02-03T04:57:58;101869.76;;;-1.37;100.00
57050;BME280;42935;50.966;16.992;2023-02-03T05:01:07;101875.05;;;-1.33;100.00
57050;BME280;42935;50.966;16.992;2023-02-03T05:04:14;101862.62;;;-1.24;100.00
57050;BME280;42935;50.966;16.992;2023-02-03T05:07:25;101852.38;;;-1.20;100.00
57050;BME280;42935;50.966;16.992;2023-02-03T05:10:34;101833.86;;;-1.27;100.00
57050;BME280;42935;50.966;16.992;2023-02-03T05:13:43;101827.17;;;-1.33;100.00
57050;BME280;42935;50.966;16.992;2023-02-03T05:16:56;101831.52;;;-1.25;100.00
57050;BME280;42935;50.966;16.992;2023-02-03T05:20:06;101777.29;;;-1.48;100.00
57050;BME280;42935;50.966;16.992;2023-02-03T05:23:15;101836.32;;;-1.04;100.00
57050;BME280;42935;50.966;16.992;2023-02-03T05:26:21;101835.38;;;-1.02;100.00
57050;BME280;42935;50.966;16.992;2023-02-03T05:29:30;101823.38;;;-1.05;100.00
57050;BME280;42935;50.966;16.992;2023-02-03T05:32:37;101825.14;;;-1.19;100.00
57050;BME280;42935;50.966;16.992;2023-02-03T05:35:46;101829.02;;;-1.12;100.00
57050;BME280;42935;50.966;16.992;2023-02-03T05:38:55;101822.03;;;-1.08;100.00
57050;BME280;42935;50.966;16.992;2023-02-03T05:42:04;101817.93;;;-1.07;100.00
57050;BME280;42935;50.966;16.992;2023-02-03T05:45:13;101806.68;;;-1.12;100.00
57050;BME280;42935;50.966;16.992;2023-02-03T05:48:22;101769.43;;;-1.30;100.00
57050;BME280;42935;50.966;16.992;2023-02-03T05:51:33;101785.19;;;-1.16;100.00
57050;BME280;42935;50.966;16.992;2023-02-03T05:54:39;101773.36;;;-1.21;100.00
57050;BME280;42935;50.966;16.992;2023-02-03T05:57:52;101782.36;;;-1.04;100.00
57050;BME280;42935;50.966;16.992;2023-02-03T06:01:01;101776.91;;;-1.01;100.00
57050;BME280;42935;50.966;16.992;2023-02-03T06:04:10;101751.79;;;-1.04;100.00
57050;BME280;42935;50.966;16.992;2023-02-03T06:07:14;101759.98;;;-0.94;100.00
57050;BME280;42935;50.966;16.992;2023-02-03T06:10:26;101757.83;;;-0.94;100.00
57050;BME280;42935;50.966;16.992;2023-02-03T06:13:36;101735.19;;;-1.01;100.00
57050;BME280;42935;50.966;16.992;2023-02-03T06:16:41;101717.72;;;-1.03;100.00
57050;BME280;42935;50.966;16.992;2023-02-03T06:19:49;101715.31;;;-0.96;100.00
57050;BME280;42935;50.966;16.992;2023-02-03T06:22:58;101722.03;;;-0.84;100.00
57050;BME280;42935;50.966;16.992;2023-02-03T06:26:37;101710.59;;;-0.75;100.00
57050;BME280;42935;50.966;16.992;2023-02-03T06:29:42;101701.21;;;-0.76;100.00
57050;BME280;42935;50.966;16.992;2023-02-03T06:32:52;101701.67;;;-0.76;100.00
57050;BME280;42935;50.966;16.992;2023-02-03T06:35:57;101700.88;;;-0.73;100.00
57050;BME280;42935;50.966;16.992;2023-02-03T06:39:06;101688.16;;;-0.82;100.00
57050;BME280;42935;50.966;16.992;2023-02-03T06:42:15;101691.84;;;-0.80;100.00
57050;BME280;42935;50.966;16.992;2023-02-03T06:45:25;101685.95;;;-0.80;100.00
57050;BME280;42935;50.966;16.992;2023-02-03T06:48:33;101642.03;;;-0.94;100.00
57050;BME280;42935;50.966;16.992;2023-02-03T06:51:42;101639.75;;;-0.85;100.00
57050;BME280;42935;50.966;16.992;2023-02-03T06:54:51;101640.46;;;-0.91;100.00
57050;BME280;42935;50.966;16.992;2023-02-03T06:57:56;101629.99;;;-0.93;100.00
57050;BME280;42935;50.966;16.992;2023-02-03T07:01:02;101621.84;;;-0.93;100.00
57050;BME280;42935;50.966;16.992;2023-02-03T07:04:07;101626.20;;;-0.85;100.00
57050;BME280;42935;50.966;16.992;2023-02-03T07:07:17;101616.28;;;-0.90;100.00
57050;BME280;42935;50.966;16.992;2023-02-03T07:10:23;101590.05;;;-1.00;100.00
57050;BME280;42935;50.966;16.992;2023-02-03T07:13:30;101596.48;;;-0.99;100.00
57050;BME280;42935;50.966;16.992;2023-02-03T07:16:45;101582.13;;;-1.01;100.00
57050;BME280;42935;50.966;16.992;2023-02-03T07:19:52;101559.85;;;-1.03;100.00
57050;BME280;42935;50.966;16.992;2023-02-03T07:22:59;101548.52;;;-0.94;100.00
57050;BME280;42935;50.966;16.992;2023-02-03T07:26:09;101537.20;;;-0.98;100.00
57050;BME280;42935;50.966;16.992;2023-02-03T07:29:16;101540.62;;;-0.86;100.00
57050;BME280;42935;50.966;16.992;2023-02-03T07:32:22;101541.40;;;-0.86;100.00
57050;BME280;42935;50.966;16.992;2023-02-03T07:35:37;101531.26;;;-0.92;100.00
57050;BME280;42935;50.966;16.992;2023-02-03T07:38:46;101510.24;;;-0.87;100.00
57050;BME280;42935;50.966;16.992;2023-02-03T07:41:52;101507.93;;;-0.88;100.00
57050;BME280;42935;50.966;16.992;2023-02-03T07:45:05;101504.73;;;-0.85;100.00
57050;BME280;42935;50.966;16.992;2023-02-03T07:48:10;101492.21;;;-0.88;100.00
57050;BME280;42935;50.966;16.992;2023-02-03T07:51:19;101478.98;;;-0.85;100.00
57050;BME280;42935;50.966;16.992;2023-02-03T07:54:30;101458.20;;;-0.84;100.00
57050;BME280;42935;50.966;16.992;2023-02-03T07:57:36;101435.52;;;-0.87;100.00
57050;BME280;42935;50.966;16.992;2023-02-03T08:00:49;101437.98;;;-0.87;100.00
57050;BME280;42935;50.966;16.992;2023-02-03T08:03:56;101423.81;;;-0.84;100.00
57050;BME280;42935;50.966;16.992;2023-02-03T08:07:01;101413.17;;;-0.69;100.00
57050;BME280;42935;50.966;16.992;2023-02-03T08:10:12;101409.13;;;-0.73;100.00
57050;BME280;42935;50.966;16.992;2023-02-03T08:13:25;101409.92;;;-0.64;100.00
57050;BME280;42935;50.966;16.992;2023-02-03T08:16:35;101405.91;;;-0.62;100.00
57050;BME280;42935;50.966;16.992;2023-02-03T08:19:43;101393.30;;;-0.56;100.00
57050;BME280;42935;50.966;16.992;2023-02-03T08:22:52;101386.15;;;-0.52;100.00
57050;BME280;42935;50.966;16.992;2023-02-03T08:26:01;101375.86;;;-0.57;100.00
57050;BME280;42935;50.966;16.992;2023-02-03T08:29:06;101351.56;;;-0.54;100.00
57050;BME280;42935;50.966;16.992;2023-02-03T08:32:15;101353.30;;;-0.41;100.00
57050;BME280;42935;50.966;16.992;2023-02-03T08:35:21;101345.57;;;-0.49;100.00
57050;BME280;42935;50.966;16.992;2023-02-03T08:38:26;101345.33;;;-0.34;100.00
57050;BME280;42935;50.966;16.992;2023-02-03T08:41:33;101340.38;;;-0.29;100.00
57050;BME280;42935;50.966;16.992;2023-02-03T08:44:41;101329.58;;;-0.26;100.00
57050;BME280;42935;50.966;16.992;2023-02-03T08:47:50;101330.04;;;-0.23;100.00
57050;BME280;42935;50.966;16.992;2023-02-03T08:50:59;101322.14;;;-0.13;100.00
57050;BME280;42935;50.966;16.992;2023-02-03T08:54:10;101307.06;;;-0.07;100.00
57050;BME280;42935;50.966;16.992;2023-02-03T08:57:19;101294.09;;;-0.01;100.00
57050;BME280;42935;50.966;16.992;2023-02-03T09:00:26;101311.28;;;0.11;100.00
57050;BME280;42935;50.966;16.992;2023-02-03T09:03:39;101300.44;;;0.13;100.00
57050;BME280;42935;50.966;16.992;2023-02-03T09:06:47;101285.17;;;0.15;100.00
57050;BME280;42935;50.966;16.992;2023-02-03T09:09:55;101285.56;;;0.30;100.00
57050;BME280;42935;50.966;16.992;2023-02-03T09:13:04;101277.93;;;0.37;100.00
57050;BME280;42935;50.966;16.992;2023-02-03T09:16:15;101261.77;;;0.34;100.00
57050;BME280;42935;50.966;16.992;2023-02-03T09:19:24;101256.59;;;0.41;100.00
57050;BME280;42935;50.966;16.992;2023-02-03T09:22:33;101254.88;;;0.45;100.00
57050;BME280;42935;50.966;16.992;2023-02-03T09:25:38;101237.71;;;0.42;100.00
57050;BME280;42935;50.966;16.992;2023-02-03T09:28:42;101245.49;;;0.51;100.00
57050;BME280;42935;50.966;16.992;2023-02-03T09:31:51;101244.23;;;0.54;100.00
57050;BME280;42935;50.966;16.992;2023-02-03T09:34:58;101235.44;;;0.54;100.00
57050;BME280;42935;50.966;16.992;2023-02-03T09:38:07;101236.20;;;0.44;100.00
57050;BME280;42935;50.966;16.992;2023-02-03T09:44:46;101215.61;;;0.39;100.00
57050;BME280;42935;50.966;16.992;2023-02-03T09:47:53;101191.58;;;0.32;100.00
57050;BME280;42935;50.966;16.992;2023-02-03T09:51:02;101184.89;;;0.38;100.00
57050;BME280;42935;50.966;16.992;2023-02-03T09:54:22;101175.50;;;0.32;100.00
57050;BME280;42935;50.966;16.992;2023-02-03T09:57:31;101176.83;;;0.35;100.00
57050;BME280;42935;50.966;16.992;2023-02-03T10:00:47;101179.03;;;0.43;100.00
57050;BME280;42935;50.966;16.992;2023-02-03T10:04:10;101159.38;;;0.48;100.00
57050;BME280;42935;50.966;16.992;2023-02-03T10:07:20;101145.66;;;0.50;100.00
57050;BME280;42935;50.966;16.992;2023-02-03T10:10:41;101137.48;;;0.51;100.00
57050;BME280;42935;50.966;16.992;2023-02-03T10:14:02;101136.80;;;0.60;100.00
57050;BME280;42935;50.966;16.992;2023-02-03T10:17:20;101118.63;;;0.61;100.00
57050;BME280;42935;50.966;16.992;2023-02-03T10:23:47;101099.21;;;0.58;100.00
57050;BME280;42935;50.966;16.992;2023-02-03T10:26:56;101090.51;;;0.55;100.00
57050;BME280;42935;50.966;16.992;2023-02-03T10:33:28;101072.50;;;0.48;100.00
57050;BME280;42935;50.966;16.992;2023-02-03T10:39:56;101034.95;;;0.57;100.00
57050;BME280;42935;50.966;16.992;2023-02-03T10:43:08;101029.48;;;0.66;100.00
57050;BME280;42935;50.966;16.992;2023-02-03T10:46:32;101016.75;;;0.77;100.00
57050;BME280;42935;50.966;16.992;2023-02-03T10:49:39;100992.39;;;0.89;100.00
57050;BME280;42935;50.966;16.992;2023-02-03T10:52:47;100976.53;;;1.23;100.00
57050;BME280;42935;50.966;16.992;2023-02-03T10:56:03;100959.78;;;1.21;100.00
57050;BME280;42935;50.966;16.992;2023-02-03T11:02:34;100959.23;;;1.40;100.00
57050;BME280;42935;50.966;16.992;2023-02-03T11:05:43;100946.30;;;0.87;100.00
57050;BME280;42935;50.966;16.992;2023-02-03T11:08:50;100939.59;;;0.71;100.00
57050;BME280;42935;50.966;16.992;2023-02-03T11:12:05;100935.73;;;0.68;100.00
57050;BME280;42935;50.966;16.992;2023-02-03T11:15:15;100920.63;;;0.68;100.00
57050;BME280;42935;50.966;16.992;2023-02-03T11:21:51;100871.23;;;0.56;100.00
57050;BME280;42935;50.966;16.992;2023-02-03T11:24:51;100872.22;;;1.17;100.00
57050;BME280;42935;50.966;16.992;2023-02-03T11:28:03;100869.51;;;1.64;100.00
57050;BME280;42935;50.966;16.992;2023-02-03T11:31:24;100866.52;;;1.70;100.00
57050;BME280;42935;50.966;16.992;2023-02-03T11:34:34;100851.25;;;1.84;100.00
57050;BME280;42935;50.966;16.992;2023-02-03T11:37:48;100847.77;;;1.72;100.00
57050;BME280;42935;50.966;16.992;2023-02-03T11:41:00;100838.86;;;1.66;100.00
57050;BME280;42935;50.966;16.992;2023-02-03T11:47:26;100830.82;;;1.17;100.00
57050;BME280;42935;50.966;16.992;2023-02-03T12:13:58;100765.44;;;2.08;100.00
57050;BME280;42935;50.966;16.992;2023-02-03T12:17:19;100762.70;;;2.01;100.00
57050;BME280;42935;50.966;16.992;2023-02-03T12:30:29;100730.78;;;2.37;100.00
57050;BME280;42935;50.966;16.992;2023-02-03T12:33:45;100730.35;;;2.55;100.00
57050;BME280;42935;50.966;16.992;2023-02-03T12:37:04;100718.23;;;2.68;100.00
57050;BME280;42935;50.966;16.992;2023-02-03T12:43:37;100694.96;;;2.96;100.00
57050;BME280;42935;50.966;16.992;2023-02-03T12:46:52;100676.27;;;2.94;100.00
57050;BME280;42935;50.966;16.992;2023-02-03T12:50:13;100686.05;;;3.20;100.00
57050;BME280;42935;50.966;16.992;2023-02-03T12:53:26;100694.07;;;3.24;100.00
57050;BME280;42935;50.966;16.992;2023-02-03T12:56:42;100662.93;;;3.25;100.00
57050;BME280;42935;50.966;16.992;2023-02-03T13:00:05;100655.66;;;3.18;100.00
57050;BME280;42935;50.966;16.992;2023-02-03T13:10:03;100628.25;;;3.32;100.00
57050;BME280;42935;50.966;16.992;2023-02-03T13:13:20;100643.08;;;3.49;100.00
57050;BME280;42935;50.966;16.992;2023-02-03T13:16:32;100631.01;;;3.66;100.00
57050;BME280;42935;50.966;16.992;2023-02-03T13:19:51;100628.36;;;3.84;100.00
57050;BME280;42935;50.966;16.992;2023-02-03T13:23:04;100631.48;;;3.82;100.00
57050;BME280;42935;50.966;16.992;2023-02-03T13:26:28;100625.26;;;3.62;100.00
57050;BME280;42935;50.966;16.992;2023-02-03T13:29:47;100619.58;;;3.90;100.00
57050;BME280;42935;50.966;16.992;2023-02-03T13:42:56;100668.49;;;4.63;100.00
57050;BME280;42935;50.966;16.992;2023-02-03T13:49:33;100686.85;;;4.88;100.00
57050;BME280;42935;50.966;16.992;2023-02-03T13:52:44;100678.60;;;4.82;100.00
57050;BME280;42935;50.966;16.992;2023-02-03T13:55:59;100659.20;;;4.74;100.00
57050;BME280;42935;50.966;16.992;2023-02-03T14:05:47;100684.48;;;4.43;100.00
57050;BME280;42935;50.966;16.992;2023-02-03T14:08:59;100703.35;;;4.28;100.00
57050;BME280;42935;50.966;16.992;2023-02-03T14:15:30;100714.73;;;4.28;100.00
57050;BME280;42935;50.966;16.992;2023-02-03T14:18:43;100692.71;;;4.26;100.00
57050;BME280;42935;50.966;16.992;2023-02-03T14:22:01;100712.30;;;4.37;100.00
57050;BME280;42935;50.966;16.992;2023-02-03T14:25:08;100708.68;;;4.30;100.00
57050;BME280;42935;50.966;16.992;2023-02-03T14:28:23;100707.42;;;4.25;100.00
57050;BME280;42935;50.966;16.992;2023-02-03T14:31:28;100720.48;;;4.32;100.00
57050;BME280;42935;50.966;16.992;2023-02-03T14:34:45;100729.81;;;4.27;100.00
57050;BME280;42935;50.966;16.992;2023-02-03T14:38:04;100736.13;;;4.20;100.00
57050;BME280;42935;50.966;16.992;2023-02-03T14:41:10;100745.66;;;4.22;100.00
57050;BME280;42935;50.966;16.992;2023-02-03T14:57:45;100766.27;;;4.26;100.00
57050;BME280;42935;50.966;16.992;2023-02-03T15:00:56;100756.81;;;4.23;100.00
57050;BME280;42935;50.966;16.992;2023-02-03T15:04:19;100750.48;;;4.18;100.00
57050;BME280;42935;50.966;16.992;2023-02-03T15:10:53;100754.71;;;4.22;100.00
57050;BME280;42935;50.966;16.992;2023-02-03T15:17:29;100737.69;;;4.11;100.00
57050;BME280;42935;50.966;16.992;2023-02-03T15:20:44;100738.97;;;4.10;100.00
57050;BME280;42935;50.966;16.992;2023-02-03T15:23:51;100750.73;;;4.18;100.00
57050;BME280;42935;50.966;16.992;2023-02-03T15:26:56;100748.27;;;4.13;100.00
57050;BME280;42935;50.966;16.992;2023-02-03T15:33:21;100744.05;;;4.18;100.00
57050;BME280;42935;50.966;16.992;2023-02-03T15:36:34;100748.52;;;4.15;100.00
57050;BME280;42935;50.966;16.992;2023-02-03T15:43:18;100756.85;;;4.06;100.00
57050;BME280;42935;50.966;16.992;2023-02-03T15:49:44;100765.98;;;4.15;100.00
57050;BME280;42935;50.966;16.992;2023-02-03T15:52:52;100762.48;;;4.10;100.00
57050;BME280;42935;50.966;16.992;2023-02-03T15:56:00;100776.46;;;4.24;100.00
57050;BME280;42935;50.966;16.992;2023-02-03T15:59:45;100773.66;;;4.17;100.00
57050;BME280;42935;50.966;16.992;2023-02-03T16:02:53;100789.41;;;4.13;100.00
57050;BME280;42935;50.966;16.992;2023-02-03T16:06:15;100796.34;;;4.16;100.00
57050;BME280;42935;50.966;16.992;2023-02-03T16:09:33;100796.56;;;4.13;100.00
57050;BME280;42935;50.966;16.992;2023-02-03T16:12:42;100809.56;;;4.15;100.00
57050;BME280;42935;50.966;16.992;2023-02-03T16:15:59;100827.20;;;4.16;100.00
57050;BME280;42935;50.966;16.992;2023-02-03T16:19:15;100829.26;;;3.96;100.00
57050;BME280;42935;50.966;16.992;2023-02-03T16:22:26;100822.82;;;3.85;100.00
57050;BME280;42935;50.966;16.992;2023-02-03T16:25:36;100822.01;;;3.73;100.00
57050;BME280;42935;50.966;16.992;2023-02-03T16:32:18;100841.91;;;3.60;100.00
57050;BME280;42935;50.966;16.992;2023-02-03T16:35:38;100852.90;;;3.50;100.00
57050;BME280;42935;50.966;16.992;2023-02-03T16:39:00;100860.70;;;3.41;100.00
57050;BME280;42935;50.966;16.992;2023-02-03T16:42:19;100868.40;;;3.26;100.00
57050;BME280;42935;50.966;16.992;2023-02-03T16:45:36;100898.91;;;3.31;100.00
57050;BME280;42935;50.966;16.992;2023-02-03T16:48:53;100900.72;;;3.28;100.00
57050;BME280;42935;50.966;16.992;2023-02-03T16:52:10;100908.20;;;3.31;100.00
57050;BME280;42935;50.966;16.992;2023-02-03T16:55:19;100911.66;;;3.32;100.00
57050;BME280;42935;50.966;16.992;2023-02-03T16:58:24;100923.65;;;3.25;100.00
57050;BME280;42935;50.966;16.992;2023-02-03T17:01:31;100915.69;;;3.18;100.00
57050;BME280;42935;50.966;16.992;2023-02-03T17:04:37;100914.76;;;3.07;100.00
57050;BME280;42935;50.966;16.992;2023-02-03T17:07:44;100926.66;;;3.09;100.00
57050;BME280;42935;50.966;16.992;2023-02-03T17:10:48;100931.84;;;3.12;100.00
57050;BME280;42935;50.966;16.992;2023-02-03T17:13:53;100908.01;;;2.98;100.00
57050;BME280;42935;50.966;16.992;2023-02-03T17:17:09;100918.03;;;3.04;100.00
57050;BME280;42935;50.966;16.992;2023-02-03T17:20:13;100898.00;;;2.88;100.00
57050;BME280;42935;50.966;16.992;2023-02-03T17:23:22;100911.84;;;2.96;100.00
57050;BME280;42935;50.966;16.992;2023-02-03T17:26:31;100877.28;;;2.72;100.00
57050;BME280;42935;50.966;16.992;2023-02-03T17:29:40;100917.82;;;3.03;100.00
57050;BME280;42935;50.966;16.992;2023-02-03T17:32:47;100916.01;;;3.01;100.00
57050;BME280;42935;50.966;16.992;2023-02-03T17:39:11;100926.26;;;3.09;100.00
57050;BME280;42935;50.966;16.992;2023-02-03T17:42:17;100902.70;;;2.97;100.00
57050;BME280;42935;50.966;16.992;2023-02-03T17:45:23;100910.99;;;3.01;100.00
57050;BME280;42935;50.966;16.992;2023-02-03T17:48:30;100913.10;;;3.06;100.00
57050;BME280;42935;50.966;16.992;2023-02-03T17:51:39;100919.41;;;3.07;100.00
57050;BME280;42935;50.966;16.992;2023-02-03T17:54:48;100934.92;;;3.12;100.00
57050;BME280;42935;50.966;16.992;2023-02-03T17:57:56;100923.09;;;3.10;100.00
57050;BME280;42935;50.966;16.992;2023-02-03T18:01:10;100941.85;;;3.17;100.00
57050;BME280;42935;50.966;16.992;2023-02-03T18:04:21;100921.05;;;3.13;100.00
57050;BME280;42935;50.966;16.992;2023-02-03T18:07:31;100939.31;;;3.22;100.00
57050;BME280;42935;50.966;16.992;2023-02-03T18:10:35;100938.66;;;3.20;100.00
57050;BME280;42935;50.966;16.992;2023-02-03T18:13:42;100940.63;;;3.28;100.00
57050;BME280;42935;50.966;16.992;2023-02-03T18:16:46;100933.07;;;3.27;100.00
57050;BME280;42935;50.966;16.992;2023-02-03T18:19:54;100917.28;;;3.25;100.00
57050;BME280;42935;50.966;16.992;2023-02-03T18:23:00;100934.96;;;3.36;100.00
57050;BME280;42935;50.966;16.992;2023-02-03T18:26:11;100913.18;;;3.36;100.00
57050;BME280;42935;50.966;16.992;2023-02-03T18:29:18;100926.94;;;3.48;100.00
57050;BME280;42935;50.966;16.992;2023-02-03T18:32:27;100901.38;;;3.51;100.00
57050;BME280;42935;50.966;16.992;2023-02-03T18:35:35;100921.05;;;3.68;100.00
57050;BME280;42935;50.966;16.992;2023-02-03T18:38:45;100927.78;;;3.72;100.00
57050;BME280;42935;50.966;16.992;2023-02-03T18:41:51;100899.54;;;3.47;100.00
57050;BME280;42935;50.966;16.992;2023-02-03T18:44:56;100919.05;;;3.72;100.00
57050;BME280;42935;50.966;16.992;2023-02-03T18:48:08;100916.02;;;3.64;100.00
57050;BME280;42935;50.966;16.992;2023-02-03T18:51:20;100943.47;;;3.62;100.00